Time;durP1;ratioP1;P1;durP2;ratioP2;P2;SDS_P1;SDS_P2;PMS_P1;PMS_P2;Temp;Humidity;BMP_temperature;BMP_pressure;BME280_temperature;BME280_humidity;BME280_pressure;Samples;Min_cycle;Max_cycle;Signal;HPM_P1;HPM_P2
2022/02/20 00:00:50;;;;;;;8.20;2.40;;;7.70;77.30;;;;;;5016539;28;20352;-91
2022/02/20 00:03:17;;;;;;;7.00;3.28;;;7.60;77.10;;;;;;5018663;28;20197;-92
2022/02/20 00:05:43;;;;;;;5.15;2.67;;;7.60;76.70;;;;;;5017392;28;20205;-92
2022/02/20 00:08:09;;;;;;;11.93;3.10;;;7.50;76.50;;;;;;5017174;28;20560;-92
2022/02/20 00:10:35;;;;;;;4.97;2.93;;;7.60;76.40;;;;;;5017353;28;20653;-92
2022/02/20 00:13:01;;;;;;;8.68;2.83;;;7.40;76.30;;;;;;5035367;28;20413;-92
2022/02/20 00:15:27;;;;;;;6.50;2.43;;;7.30;76.10;;;;;;5016845;28;20695;-92
2022/02/20 00:17:57;;;;;;;11.25;2.50;;;7.10;76.10;;;;;;5015985;28;20424;-92
2022/02/20 00:20:30;;;;;;;10.02;3.28;;;7.00;76.10;;;;;;5017749;28;20633;-92
2022/02/20 00:22:56;;;;;;;7.05;3.10;;;7.00;76.40;;;;;;5017185;28;20629;-92
2022/02/20 00:25:23;;;;;;;11.32;3.15;;;6.90;76.80;;;;;;5014679;28;20224;-92
2022/02/20 00:27:50;;;;;;;5.25;2.85;;;6.90;76.70;;;;;;5033124;28;20244;-92
2022/02/20 00:30:17;;;;;;;15.30;3.65;;;6.90;76.70;;;;;;5015685;28;20174;-92
2022/02/20 00:32:43;;;;;;;8.05;3.67;;;6.80;76.70;;;;;;5015429;28;20675;-92
2022/02/20 00:35:09;;;;;;;8.47;2.67;;;6.90;76.80;;;;;;5018856;28;20205;-92
2022/02/20 00:37:35;;;;;;;4.13;2.40;;;6.90;76.70;;;;;;5019721;28;20276;-93
2022/02/20 00:40:10;;;;;;;5.67;2.67;;;7.00;76.40;;;;;;5026972;28;20420;-92
2022/02/20 00:42:36;;;;;;;4.88;3.17;;;6.90;76.60;;;;;;5016306;28;20420;-92
2022/02/20 00:45:03;;;;;;;4.60;2.60;;;7.00;76.50;;;;;;5032460;28;20218;-91
2022/02/20 00:47:28;;;;;;;9.27;2.83;;;7.00;77.00;;;;;;5018801;28;20493;-92
2022/02/20 00:49:54;;;;;;;12.63;2.57;;;7.10;76.50;;;;;;5019739;28;20628;-91
2022/02/20 00:52:20;;;;;;;4.60;2.57;;;7.20;76.60;;;;;;5038297;28;20412;-92
2022/02/20 00:54:45;;;;;;;5.57;2.43;;;7.20;76.20;;;;;;5029926;28;20735;-92
2022/02/20 00:57:11;;;;;;;8.43;2.93;;;7.20;76.20;;;;;;5038140;28;20805;-92
2022/02/20 00:59:37;;;;;;;10.20;2.60;;;7.10;76.40;;;;;;5019323;28;20227;-92
2022/02/20 01:02:03;;;;;;;9.93;3.50;;;7.20;76.40;;;;;;5019365;28;20181;-92
2022/02/20 01:04:52;;;;;;;6.03;3.47;;;7.20;76.40;;;;;;5035997;28;20221;-92
2022/02/20 01:07:18;;;;;;;6.50;3.47;;;7.40;76.30;;;;;;5008819;28;20269;-92
2022/02/20 01:09:44;;;;;;;6.70;3.47;;;7.30;76.20;;;;;;5019092;28;20213;-92
2022/02/20 01:12:10;;;;;;;11.63;4.95;;;7.50;76.00;;;;;;5018989;28;20432;-92
2022/02/20 01:14:36;;;;;;;7.60;3.50;;;7.50;76.00;;;;;;5020969;28;20297;-92
2022/02/20 01:17:03;;;;;;;11.63;4.80;;;7.50;76.00;;;;;;5024503;28;20420;-91
2022/02/20 01:19:28;;;;;;;11.23;4.63;;;7.40;76.10;;;;;;5048930;28;20471;-91
2022/02/20 01:21:54;;;;;;;8.10;5.00;;;7.60;76.00;;;;;;5049586;28;20618;-92
2022/02/20 01:24:20;;;;;;;14.03;4.83;;;7.60;76.00;;;;;;5038084;28;20224;-92
2022/02/20 01:26:45;;;;;;;8.27;5.30;;;7.70;76.00;;;;;;5026943;28;20189;-91
2022/02/20 01:29:11;;;;;;;11.70;4.90;;;7.80;75.60;;;;;;5019402;28;20178;-92
2022/02/20 01:31:37;;;;;;;10.07;4.83;;;7.70;75.40;;;;;;5019446;28;20201;-92
2022/02/20 01:34:03;;;;;;;10.77;5.77;;;7.60;75.50;;;;;;5036639;28;20277;-91
2022/02/20 01:36:29;;;;;;;8.93;4.78;;;7.60;75.80;;;;;;5024134;28;20273;-91
2022/02/20 01:38:54;;;;;;;14.70;5.23;;;7.60;76.00;;;;;;5018432;28;20283;-92
2022/02/20 01:41:21;;;;;;;8.90;5.17;;;7.60;76.00;;;;;;5017870;28;20416;-92
2022/02/20 01:43:50;;;;;;;9.23;5.20;;;7.60;76.10;;;;;;5019908;28;20265;-92
2022/02/20 01:46:16;;;;;;;9.85;4.90;;;7.50;76.30;;;;;;5021801;28;20178;-92
2022/02/20 01:48:41;;;;;;;11.50;4.97;;;7.50;76.50;;;;;;5040036;28;20315;-93
2022/02/20 01:51:07;;;;;;;17.07;6.23;;;7.50;76.70;;;;;;5024591;28;20190;-93
2022/02/20 01:53:33;;;;;;;15.33;5.93;;;7.50;76.90;;;;;;5036104;28;20622;-93
2022/02/20 01:56:00;;;;;;;20.73;7.25;;;7.50;76.90;;;;;;5018462;28;20205;-93
2022/02/20 01:58:25;;;;;;;16.80;6.25;;;7.40;77.10;;;;;;5018360;28;20178;-92
2022/02/20 02:00:51;;;;;;;19.70;5.80;;;7.30;77.50;;;;;;5018334;28;20181;-93
2022/02/20 02:03:17;;;;;;;9.00;4.63;;;7.30;77.70;;;;;;5017476;28;20250;-92
2022/02/20 02:05:43;;;;;;;10.93;4.93;;;7.30;78.00;;;;;;5017348;28;20472;-93
2022/02/20 02:08:13;;;;;;;17.05;7.25;;;7.30;78.10;;;;;;5017327;28;20177;-92
2022/02/20 02:10:39;;;;;;;16.05;6.55;;;7.40;78.20;;;;;;5017541;28;20609;-93
2022/02/20 02:13:15;;;;;;;23.17;6.78;;;7.30;78.30;;;;;;5017792;28;20181;-92
2022/02/20 02:15:52;;;;;;;12.80;6.38;;;7.10;78.70;;;;;;5019917;28;20174;-92
2022/02/20 02:18:19;;;;;;;11.70;6.30;;;7.40;78.90;;;;;;5022518;28;20545;-92
2022/02/20 02:20:45;;;;;;;20.85;7.25;;;7.40;78.70;;;;;;5017319;28;20197;-92
2022/02/20 02:23:13;;;;;;;16.23;6.60;;;7.50;78.80;;;;;;5035251;28;20174;-92
2022/02/20 02:25:39;;;;;;;10.75;6.32;;;7.40;78.80;;;;;;5016742;28;20483;-92
2022/02/20 02:28:06;;;;;;;13.15;6.43;;;7.60;79.00;;;;;;5017288;28;20182;-91
2022/02/20 02:30:31;;;;;;;15.13;5.65;;;7.80;78.50;;;;;;5025603;28;20170;-93
2022/02/20 02:32:57;;;;;;;18.20;6.63;;;7.90;78.30;;;;;;5028198;28;20636;-92
2022/02/20 02:35:24;;;;;;;8.40;5.13;;;8.00;78.00;;;;;;5018334;28;20444;-92
2022/02/20 02:37:52;;;;;;;10.50;5.05;;;7.90;77.90;;;;;;5017428;28;20526;-92
2022/02/20 02:40:18;;;;;;;11.20;5.03;;;7.80;78.00;;;;;;5036274;28;20173;-92
2022/02/20 02:42:44;;;;;;;11.82;4.85;;;7.90;78.10;;;;;;5021976;28;20396;-92
2022/02/20 02:45:09;;;;;;;21.30;6.20;;;7.70;78.00;;;;;;5043959;28;20281;-92
2022/02/20 02:47:35;;;;;;;10.60;5.50;;;7.70;78.40;;;;;;5019824;28;20170;-93
2022/02/20 02:50:01;;;;;;;13.77;5.77;;;7.70;78.50;;;;;;5019240;28;20180;-92
2022/02/20 02:52:27;;;;;;;11.75;6.05;;;7.80;78.40;;;;;;5016899;28;20440;-93
2022/02/20 02:54:53;;;;;;;9.70;5.90;;;7.80;78.20;;;;;;5034369;28;20214;-92
2022/02/20 02:57:18;;;;;;;13.57;5.17;;;7.90;78.00;;;;;;5017038;28;20186;-92
2022/02/20 02:59:44;;;;;;;17.30;4.87;;;7.80;77.90;;;;;;5016899;28;20182;-93
2022/02/20 03:02:10;;;;;;;13.87;4.83;;;7.90;78.10;;;;;;5030193;28;20440;-91
2022/02/20 03:04:36;;;;;;;11.60;4.17;;;7.90;78.00;;;;;;5034067;28;20460;-91
2022/02/20 03:07:02;;;;;;;9.90;4.50;;;7.80;77.50;;;;;;5015910;28;20425;-92
2022/02/20 03:09:28;;;;;;;10.75;4.43;;;8.00;77.60;;;;;;5015526;28;20170;-91
2022/02/20 03:11:54;;;;;;;7.37;4.23;;;8.00;77.40;;;;;;5016676;28;20227;-92
2022/02/20 03:14:20;;;;;;;9.07;3.40;;;7.90;77.50;;;;;;5033785;28;20441;-92
2022/02/20 03:16:46;;;;;;;7.82;3.20;;;7.90;77.50;;;;;;5016775;28;20530;-91
2022/02/20 03:19:12;;;;;;;13.33;4.93;;;7.80;77.60;;;;;;5017059;28;20182;-92
2022/02/20 03:21:38;;;;;;;4.20;2.50;;;7.80;77.80;;;;;;5016711;28;20528;-91
2022/02/20 03:24:04;;;;;;;9.63;3.00;;;7.90;78.00;;;;;;5024254;28;20452;-91
2022/02/20 03:26:30;;;;;;;14.68;2.88;;;8.00;77.70;;;;;;5033941;28;20432;-91
2022/02/20 03:28:56;;;;;;;7.00;2.83;;;8.00;77.40;;;;;;5018079;28;20178;-93
2022/02/20 03:31:22;;;;;;;11.30;2.80;;;7.90;77.40;;;;;;5035745;28;20650;-93
2022/02/20 03:33:48;;;;;;;10.90;3.13;;;7.80;77.30;;;;;;5017342;28;20513;-93
2022/02/20 03:36:15;;;;;;;9.80;3.67;;;7.70;77.60;;;;;;5001935;28;20178;-93
2022/02/20 03:38:41;;;;;;;9.77;3.63;;;7.80;77.90;;;;;;5039357;28;20186;-93
2022/02/20 03:41:07;;;;;;;7.25;3.72;;;7.70;78.70;;;;;;5018366;28;20178;-93
2022/02/20 03:43:34;;;;;;;14.13;3.05;;;7.80;78.00;;;;;;5018199;28;20256;-93
2022/02/20 03:46:01;;;;;;;8.38;2.70;;;7.70;78.10;;;;;;5018985;28;20214;-93
2022/02/20 03:48:27;;;;;;;11.95;2.55;;;7.70;78.40;;;;;;5021593;28;20522;-93
2022/02/20 03:50:53;;;;;;;12.90;2.23;;;7.80;78.40;;;;;;5023731;28;20182;-93
2022/02/20 03:53:18;;;;;;;11.10;2.57;;;7.80;78.30;;;;;;5023274;28;20433;-93
2022/02/20 03:55:45;;;;;;;5.10;2.60;;;8.00;78.50;;;;;;5033495;28;20448;-93
2022/02/20 03:58:10;;;;;;;9.05;3.35;;;8.00;78.50;;;;;;5015495;28;20428;-93
2022/02/20 04:00:36;;;;;;;10.07;3.37;;;8.00;78.50;;;;;;5015785;28;20209;-93
2022/02/20 04:03:02;;;;;;;8.90;2.73;;;8.30;78.60;;;;;;5014943;28;20508;-93
2022/02/20 04:05:28;;;;;;;5.60;2.90;;;8.30;78.20;;;;;;5014721;28;20483;-92
2022/02/20 04:07:54;;;;;;;10.70;2.80;;;8.30;78.20;;;;;;5014633;28;20205;-92
2022/02/20 04:10:20;;;;;;;11.63;3.25;;;8.20;78.40;;;;;;5014659;28;20165;-91
2022/02/20 04:12:45;;;;;;;13.37;3.30;;;7.90;79.50;;;;;;5015620;28;20192;-91
2022/02/20 04:15:11;;;;;;;17.77;3.93;;;7.90;80.20;;;;;;5014879;28;20451;-91
2022/02/20 04:17:41;;;;;;;16.50;4.33;;;8.00;81.00;;;;;;5016864;28;20428;-91
2022/02/20 04:20:09;;;;;;;14.25;3.35;;;8.10;81.60;;;;;;5003649;28;20532;-91
2022/02/20 04:22:36;;;;;;;15.13;3.97;;;8.30;81.80;;;;;;5020720;28;20281;-92
2022/02/20 04:25:02;;;;;;;15.93;4.05;;;8.40;82.00;;;;;;5037593;28;20255;-91
2022/02/20 04:27:29;;;;;;;19.95;5.68;;;8.60;82.10;;;;;;5025007;28;20174;-92
2022/02/20 04:29:54;;;;;;;26.92;4.57;;;8.60;82.00;;;;;;5020044;28;20174;-91
2022/02/20 04:32:20;;;;;;;31.13;5.47;;;8.50;82.80;;;;;;5005590;28;20186;-92
2022/02/20 04:34:46;;;;;;;20.33;4.27;;;8.40;82.90;;;;;;5030122;28;20202;-92
2022/02/20 04:37:12;;;;;;;28.10;5.40;;;8.40;83.80;;;;;;5035686;28;20190;-91
2022/02/20 04:39:37;;;;;;;15.97;5.53;;;8.70;84.10;;;;;;5028127;28;20193;-91
2022/02/20 04:42:03;;;;;;;23.83;5.10;;;8.90;83.80;;;;;;5019126;28;20416;-90
2022/02/20 04:44:29;;;;;;;26.07;6.13;;;9.00;83.30;;;;;;5019149;28;20492;-92
2022/02/20 04:46:55;;;;;;;18.50;4.77;;;9.00;83.40;;;;;;5018441;28;20475;-91
2022/02/20 04:49:21;;;;;;;18.30;5.43;;;9.10;83.50;;;;;;5020437;28;20170;-91
2022/02/20 04:51:47;;;;;;;26.37;6.50;;;9.00;83.60;;;;;;5019470;28;20771;-91
2022/02/20 04:54:13;;;;;;;34.80;7.88;;;9.00;84.20;;;;;;5020111;28;20282;-91
2022/02/20 04:56:42;;;;;;;35.53;7.37;;;8.90;84.90;;;;;;5023733;28;20275;-91
2022/02/20 04:59:09;;;;;;;33.22;5.13;;;9.00;85.50;;;;;;5018500;28;20425;-91
2022/02/20 05:01:35;;;;;;;21.13;4.85;;;9.00;85.80;;;;;;5019182;28;20210;-91
2022/02/20 05:04:01;;;;;;;39.40;6.07;;;9.00;86.10;;;;;;5035674;28;20199;-91
2022/02/20 05:06:27;;;;;;;32.97;5.40;;;9.00;86.20;;;;;;5002250;28;20773;-91
2022/02/20 05:08:55;;;;;;;22.50;5.40;;;9.10;86.40;;;;;;5035604;28;20431;-91
2022/02/20 05:11:21;;;;;;;32.17;5.28;;;9.00;86.50;;;;;;5018216;28;20291;-91
2022/02/20 05:13:46;;;;;;;29.77;5.63;;;9.10;87.00;;;;;;5033921;28;20342;-91
2022/02/20 05:16:12;;;;;;;47.07;6.40;;;9.00;87.10;;;;;;5018152;28;20186;-91
2022/02/20 05:18:38;;;;;;;32.23;5.70;;;9.00;87.50;;;;;;5036844;28;20170;-91
2022/02/20 05:21:03;;;;;;;17.43;5.90;;;9.10;87.80;;;;;;5018355;28;20420;-91
2022/02/20 05:23:29;;;;;;;29.87;5.53;;;9.20;87.80;;;;;;5017735;28;20247;-91
2022/02/20 05:25:55;;;;;;;17.33;4.90;;;9.20;87.90;;;;;;5018028;28;20204;-92
2022/02/20 05:28:47;;;;;;;34.87;5.90;;;9.10;88.10;;;;;;5017971;28;20263;-91
2022/02/20 05:31:12;;;;;;;36.83;5.28;;;9.20;88.30;;;;;;4997660;28;20589;-91
2022/02/20 05:33:38;;;;;;;22.13;6.10;;;9.30;88.40;;;;;;5003912;28;20197;-91
2022/02/20 05:36:04;;;;;;;26.80;6.47;;;9.30;88.40;;;;;;5024740;28;20241;-91
2022/02/20 05:38:30;;;;;;;28.60;4.45;;;9.30;88.60;;;;;;5035899;28;20452;-91
2022/02/20 05:40:56;;;;;;;12.73;3.87;;;9.30;88.80;;;;;;5023697;28;20198;-92
2022/02/20 05:43:22;;;;;;;28.10;6.73;;;9.30;88.90;;;;;;5040761;28;20189;-91
2022/02/20 05:45:47;;;;;;;14.30;4.20;;;9.30;89.00;;;;;;5038902;28;20571;-92
2022/02/20 05:48:13;;;;;;;21.33;5.03;;;9.30;89.20;;;;;;5028208;28;20182;-91
2022/02/20 05:50:39;;;;;;;18.73;4.95;;;9.40;89.40;;;;;;5029628;28;20184;-92
2022/02/20 05:53:05;;;;;;;25.03;4.40;;;9.20;89.80;;;;;;5050875;28;20571;-92
2022/02/20 05:55:30;;;;;;;36.53;4.17;;;9.30;90.10;;;;;;5020318;28;20417;-91
2022/02/20 05:57:57;;;;;;;17.83;3.77;;;9.30;90.40;;;;;;5012081;28;20188;-93
2022/02/20 06:00:25;;;;;;;9.95;3.75;;;9.30;90.40;;;;;;5019820;28;20174;-93
2022/02/20 06:02:51;;;;;;;12.50;3.42;;;9.20;90.40;;;;;;5032152;28;20177;-94
2022/02/20 06:05:17;;;;;;;11.38;3.05;;;9.20;91.30;;;;;;5024786;28;20230;-92
2022/02/20 06:07:43;;;;;;;16.30;5.88;;;9.10;91.10;;;;;;5023293;28;20250;-93
2022/02/20 06:10:13;;;;;;;10.00;3.22;;;9.30;91.30;;;;;;5023892;28;20199;-93
2022/02/20 06:12:39;;;;;;;18.95;3.63;;;9.30;91.20;;;;;;5026090;28;20174;-91
2022/02/20 06:15:06;;;;;;;9.80;3.50;;;9.40;91.20;;;;;;5033123;28;20549;-94
2022/02/20 06:17:32;;;;;;;17.60;3.35;;;9.40;91.10;;;;;;5036888;28;20447;-95
2022/02/20 06:19:58;;;;;;;19.10;4.30;;;9.40;91.10;;;;;;5054316;28;20182;-94
2022/02/20 06:22:23;;;;;;;13.40;2.80;;;9.40;91.00;;;;;;5032237;28;20197;-96
2022/02/20 06:24:49;;;;;;;12.10;3.20;;;9.30;91.10;;;;;;5014295;28;20210;-95
2022/02/20 06:27:15;;;;;;;11.73;3.40;;;9.30;91.20;;;;;;5012617;28;20209;-95
2022/02/20 06:29:40;;;;;;;11.30;2.60;;;9.30;91.30;;;;;;5035578;28;20193;-95
2022/02/20 06:32:07;;;;;;;10.90;3.93;;;9.30;91.50;;;;;;5038715;28;20227;-95
2022/02/20 06:34:33;;;;;;;16.20;3.40;;;9.30;91.70;;;;;;5033764;28;20282;-96
2022/02/20 06:36:59;;;;;;;16.20;3.00;;;9.40;91.70;;;;;;5033359;28;20193;-93
2022/02/20 06:39:25;;;;;;;14.20;3.50;;;9.30;91.80;;;;;;5032267;28;20269;-95
2022/02/20 06:41:50;;;;;;;11.90;3.93;;;9.30;91.80;;;;;;5031995;28;20431;-94
2022/02/20 06:44:16;;;;;;;10.93;3.60;;;9.40;91.90;;;;;;5029590;28;20474;-95
2022/02/20 06:46:43;;;;;;;12.00;3.25;;;9.50;91.90;;;;;;5030604;28;20217;-95
2022/02/20 06:49:09;;;;;;;14.15;3.42;;;9.50;91.90;;;;;;5029415;28;20173;-95
2022/02/20 06:51:36;;;;;;;14.70;3.45;;;9.60;91.60;;;;;;5029017;28;20178;-95
2022/02/20 06:54:03;;;;;;;12.25;3.25;;;9.60;91.50;;;;;;5047161;28;20666;-95
2022/02/20 06:56:32;;;;;;;12.93;3.65;;;9.60;91.40;;;;;;5020706;28;20197;-94
2022/02/20 06:58:58;;;;;;;10.10;3.15;;;9.60;91.40;;;;;;5019124;28;20201;-93
2022/02/20 07:01:25;;;;;;;12.70;4.13;;;9.60;91.50;;;;;;5024222;28;20194;-93
2022/02/20 07:03:51;;;;;;;10.38;4.30;;;9.60;91.50;;;;;;5042701;28;20210;-94
2022/02/20 07:06:17;;;;;;;12.63;3.60;;;9.70;91.50;;;;;;5028297;28;20217;-94
2022/02/20 07:08:43;;;;;;;17.17;4.03;;;9.70;91.50;;;;;;5025900;28;20428;-95
2022/02/20 07:11:09;;;;;;;7.80;3.50;;;9.70;91.50;;;;;;5027246;28;20436;-94
2022/02/20 07:13:35;;;;;;;14.48;3.95;;;9.70;91.50;;;;;;5027367;28;20480;-95
2022/02/20 07:16:01;;;;;;;8.73;3.43;;;9.80;91.50;;;;;;5045415;28;20182;-94
2022/02/20 07:18:27;;;;;;;10.05;4.55;;;9.90;91.70;;;;;;4997974;28;20429;-95
2022/02/20 07:20:53;;;;;;;13.20;4.43;;;9.80;91.50;;;;;;5044668;28;20228;-95
2022/02/20 07:23:19;;;;;;;15.82;5.20;;;9.90;91.50;;;;;;5033025;28;20417;-93
2022/02/20 07:25:45;;;;;;;15.30;3.90;;;9.90;91.60;;;;;;5036825;28;20268;-95
2022/02/20 07:28:11;;;;;;;8.97;4.00;;;9.90;91.50;;;;;;5031520;28;20249;-95
2022/02/20 07:30:36;;;;;;;16.47;4.87;;;9.90;91.50;;;;;;5033986;28;20186;-95
2022/02/20 07:33:08;;;;;;;11.37;4.20;;;9.90;91.50;;;;;;5035923;28;20424;-94
2022/02/20 07:35:35;;;;;;;9.75;3.60;;;9.80;91.40;;;;;;5032861;28;20436;-93
2022/02/20 07:38:27;;;;;;;16.65;4.72;;;9.90;91.70;;;;;;5016416;28;20665;-93
2022/02/20 07:40:53;;;;;;;10.38;4.00;;;9.80;92.00;;;;;;5016289;28;20278;-94
2022/02/20 07:43:19;;;;;;;11.20;4.43;;;9.80;92.20;;;;;;5018315;28;20186;-93
2022/02/20 07:45:45;;;;;;;11.90;4.55;;;9.80;92.40;;;;;;5020791;28;20464;-93
2022/02/20 07:48:11;;;;;;;20.73;4.50;;;9.90;92.60;;;;;;5016583;28;20177;-93
2022/02/20 07:50:38;;;;;;;7.40;3.50;;;9.90;93.30;;;;;;5018824;28;20423;-94
2022/02/20 07:53:06;;;;;;;8.27;3.70;;;10.00;92.60;;;;;;5017919;28;20467;-93
2022/02/20 07:55:33;;;;;;;11.18;4.57;;;10.00;92.50;;;;;;5016203;28;20201;-93
2022/02/20 07:58:10;;;;;;;12.40;3.25;;;10.10;92.50;;;;;;5018071;28;20174;-92
2022/02/20 08:00:36;;;;;;;5.30;3.33;;;10.10;92.30;;;;;;5017345;28;20177;-91
2022/02/20 08:03:04;;;;;;;5.15;3.20;;;10.10;92.20;;;;;;5017649;28;20260;-90
2022/02/20 08:05:30;;;;;;;9.05;3.45;;;10.10;92.10;;;;;;5018398;28;20205;-93
2022/02/20 08:07:56;;;;;;;8.48;3.35;;;10.10;92.20;;;;;;5025133;28;20174;-95
2022/02/20 08:10:23;;;;;;;12.00;4.13;;;10.10;92.20;;;;;;5054528;28;20154;-95
2022/02/20 08:12:48;;;;;;;11.93;4.15;;;10.20;92.10;;;;;;5036343;28;20444;-95
2022/02/20 08:15:14;;;;;;;6.37;3.23;;;10.20;91.90;;;;;;5046786;28;20212;-94
2022/02/20 08:17:45;;;;;;;7.40;3.60;;;10.10;92.00;;;;;;5027591;28;20427;-94
2022/02/20 08:20:12;;;;;;;8.70;3.67;;;10.10;92.10;;;;;;5023878;28;20174;-94
2022/02/20 08:22:39;;;;;;;13.32;3.72;;;10.20;92.20;;;;;;5031832;28;20343;-94
2022/02/20 08:25:05;;;;;;;14.07;4.18;;;10.10;92.20;;;;;;5034082;28;20201;-93
2022/02/20 08:27:34;;;;;;;17.45;4.38;;;10.10;92.30;;;;;;5033916;28;20192;-94
2022/02/20 08:30:00;;;;;;;11.27;4.63;;;10.20;92.30;;;;;;5020960;28;20228;-94
2022/02/20 08:32:26;;;;;;;21.60;5.35;;;10.20;92.20;;;;;;5016231;28;20177;-93
2022/02/20 08:34:51;;;;;;;20.43;3.83;;;10.20;92.10;;;;;;5015888;28;20210;-93
2022/02/20 08:37:17;;;;;;;12.57;3.87;;;10.30;92.10;;;;;;5015459;28;20455;-93
2022/02/20 08:39:43;;;;;;;16.08;3.85;;;10.40;92.00;;;;;;5016099;28;20201;-94
2022/02/20 08:42:09;;;;;;;13.70;3.80;;;10.50;91.80;;;;;;4999309;28;20190;-94
2022/02/20 08:44:38;;;;;;;14.83;3.90;;;10.50;91.50;;;;;;5014510;28;20839;-94
2022/02/20 08:47:04;;;;;;;9.73;4.28;;;10.60;91.30;;;;;;5028903;28;20445;-93
2022/02/20 08:49:30;;;;;;;24.13;3.63;;;10.70;91.20;;;;;;5014391;28;20281;-93
2022/02/20 08:51:56;;;;;;;12.05;3.50;;;10.80;90.90;;;;;;5014787;28;20265;-92
2022/02/20 08:54:22;;;;;;;14.50;3.30;;;10.90;90.50;;;;;;5014977;28;20283;-92
2022/02/20 08:56:48;;;;;;;12.20;3.87;;;11.00;90.20;;;;;;5014957;28;20553;-93
2022/02/20 08:59:14;;;;;;;10.75;4.70;;;11.10;89.90;;;;;;5014585;28;20877;-94
2022/02/20 09:01:51;;;;;;;14.33;4.03;;;11.10;89.30;;;;;;5015198;28;20190;-93
2022/02/20 09:04:17;;;;;;;7.80;4.05;;;11.00;88.90;;;;;;5013554;28;20271;-93
2022/02/20 09:06:43;;;;;;;21.63;7.30;;;11.10;88.70;;;;;;5014950;28;20190;-92
2022/02/20 09:09:11;;;;;;;14.18;4.60;;;11.10;88.50;;;;;;5017873;28;20432;-92
2022/02/20 09:11:38;;;;;;;12.55;3.80;;;11.10;88.60;;;;;;5018039;28;20241;-92
2022/02/20 09:14:04;;;;;;;19.23;4.72;;;11.20;88.60;;;;;;5003540;28;20194;-92
2022/02/20 09:16:30;;;;;;;20.97;4.43;;;11.20;88.60;;;;;;5019571;28;20235;-92
2022/02/20 09:19:03;;;;;;;13.43;4.90;;;11.30;88.40;;;;;;5044776;28;20424;-93
2022/02/20 09:21:32;;;;;;;12.65;3.65;;;11.30;88.20;;;;;;5018557;28;20234;-91
2022/02/20 09:24:02;;;;;;;19.40;4.80;;;11.40;87.70;;;;;;5017024;28;20202;-93
2022/02/20 09:26:27;;;;;;;17.63;4.40;;;11.50;87.30;;;;;;5026336;28;20178;-92
2022/02/20 09:28:53;;;;;;;16.37;4.73;;;11.50;86.80;;;;;;5021230;28;20204;-94
2022/02/20 09:31:24;;;;;;;23.20;6.87;;;11.60;86.50;;;;;;5021901;28;20632;-93
2022/02/20 09:33:50;;;;;;;19.33;5.10;;;11.70;87.20;;;;;;5019693;28;20849;-92
2022/02/20 09:36:16;;;;;;;20.47;6.90;;;11.90;85.70;;;;;;5018763;28;20182;-91
2022/02/20 09:38:42;;;;;;;28.30;5.00;;;11.80;85.10;;;;;;5018306;28;20532;-90
2022/02/20 09:41:10;;;;;;;24.60;5.47;;;11.70;85.00;;;;;;5017311;28;20182;-92
2022/02/20 09:43:38;;;;;;;23.80;4.50;;;11.80;85.10;;;;;;5017759;28;20197;-92
2022/02/20 09:46:20;;;;;;;22.60;5.00;;;11.80;84.80;;;;;;5037156;28;20669;-91
2022/02/20 09:55:13;;;;;;;32.55;5.10;;;11.70;84.50;;;;;;5014340;28;20295;-95
2022/02/20 09:57:42;;;;;;;31.30;5.80;;;11.70;84.70;;;;;;5007850;28;20198;-93
2022/02/20 10:00:10;;;;;;;20.60;4.80;;;11.70;84.70;;;;;;4987930;28;20255;-92
2022/02/20 10:02:37;;;;;;;26.23;5.07;;;11.70;84.50;;;;;;4997469;28;20768;-93
2022/02/20 10:05:04;;;;;;;22.50;5.47;;;11.60;84.20;;;;;;5006467;28;20295;-93
2022/02/20 10:07:41;;;;;;;26.92;4.90;;;11.70;84.60;;;;;;4998644;28;20179;-93
2022/02/20 10:10:25;;;;;;;26.65;4.70;;;11.70;84.40;;;;;;5003316;28;20179;-94
2022/02/20 10:13:03;;;;;;;20.80;4.30;;;11.80;84.10;;;;;;4994847;28;20213;-93
2022/02/20 10:15:41;;;;;;;20.15;6.03;;;11.70;84.10;;;;;;5015890;28;20187;-93
2022/02/20 10:18:17;;;;;;;20.83;6.22;;;11.70;84.40;;;;;;4999608;28;20501;-93
2022/02/20 10:20:44;;;;;;;34.47;5.47;;;11.60;84.50;;;;;;4996474;28;20179;-92
2022/02/20 10:23:22;;;;;;;28.33;7.35;;;11.60;84.80;;;;;;4978059;28;20214;-93
2022/02/20 10:25:48;;;;;;;27.30;4.97;;;11.60;85.10;;;;;;4991678;28;20286;-93
2022/02/20 10:28:14;;;;;;;42.55;6.60;;;11.60;85.20;;;;;;4988593;28;20406;-93
2022/02/20 10:30:41;;;;;;;31.83;5.82;;;11.60;85.30;;;;;;5001670;28;20182;-93
2022/02/20 10:33:10;;;;;;;27.02;5.93;;;11.60;85.40;;;;;;5017353;28;20662;-92
2022/02/20 10:35:51;;;;;;;21.80;5.53;;;11.50;85.50;;;;;;5035854;28;20221;-93
2022/02/20 10:38:45;;;;;;;30.25;7.18;;;11.40;85.70;;;;;;5017283;28;20257;-93
2022/02/20 10:41:11;;;;;;;27.15;7.30;;;11.40;86.00;;;;;;5013699;28;20194;-93
2022/02/20 10:43:37;;;;;;;37.57;6.13;;;11.40;86.10;;;;;;5017358;28;20256;-93
2022/02/20 10:46:27;;;;;;;30.45;5.38;;;11.40;86.20;;;;;;5016710;28;20615;-92
2022/02/20 10:48:53;;;;;;;39.47;6.28;;;11.40;86.30;;;;;;5017796;28;20173;-92
2022/02/20 10:51:40;;;;;;;24.67;5.43;;;11.40;86.30;;;;;;5016622;28;20265;-92
2022/02/20 10:54:07;;;;;;;36.72;6.07;;;11.50;86.60;;;;;;5017398;28;20464;-92
2022/02/20 10:56:57;;;;;;;46.00;7.28;;;11.40;86.30;;;;;;5016687;28;20280;-93
2022/02/20 10:59:49;;;;;;;30.33;5.82;;;11.40;86.50;;;;;;5016581;28;20257;-91
2022/02/20 11:02:15;;;;;;;25.35;6.03;;;11.40;86.70;;;;;;5015962;28;20606;-92
2022/02/20 11:04:44;;;;;;;27.60;6.65;;;11.30;86.70;;;;;;5016274;28;20288;-91
2022/02/20 11:07:18;;;;;;;30.23;6.30;;;11.40;86.80;;;;;;5017088;28;20179;-93
2022/02/20 11:09:45;;;;;;;41.22;8.18;;;11.30;86.90;;;;;;5034360;28;20172;-92
2022/02/20 11:12:12;;;;;;;30.63;7.22;;;11.40;86.80;;;;;;5017221;28;20178;-94
2022/02/20 11:14:38;;;;;;;25.75;5.63;;;11.30;86.70;;;;;;5017195;28;20209;-92
2022/02/20 11:17:06;;;;;;;63.83;8.57;;;11.40;86.70;;;;;;5016383;28;20821;-92
2022/02/20 11:19:35;;;;;;;29.25;5.07;;;11.30;86.60;;;;;;5016261;28;20193;-92
2022/02/20 11:22:02;;;;;;;33.50;5.78;;;11.30;86.80;;;;;;5015812;28;20186;-93
2022/02/20 11:24:30;;;;;;;38.67;7.00;;;11.30;86.80;;;;;;5015803;28;20205;-91
2022/02/20 11:27:05;;;;;;;48.28;8.73;;;11.30;86.80;;;;;;5015734;28;20178;-91
2022/02/20 11:29:31;;;;;;;30.83;6.30;;;11.40;86.60;;;;;;5015305;28;20722;-92
2022/02/20 11:31:58;;;;;;;47.00;7.22;;;11.30;86.50;;;;;;5033707;28;20185;-92
2022/02/20 11:34:26;;;;;;;25.63;7.35;;;11.40;86.60;;;;;;5015774;28;20233;-92
2022/02/20 11:36:57;;;;;;;26.63;7.13;;;11.40;86.50;;;;;;5016035;28;20186;-92
2022/02/20 11:39:24;;;;;;;48.28;7.60;;;11.50;86.20;;;;;;5035042;28;20198;-93
2022/02/20 11:42:14;;;;;;;28.75;6.97;;;11.40;86.00;;;;;;4998999;28;20244;-92
2022/02/20 11:45:02;;;;;;;40.35;6.70;;;11.40;86.10;;;;;;5016635;28;20243;-92
2022/02/20 11:47:47;;;;;;;23.63;5.20;;;11.50;86.20;;;;;;5015565;28;20193;-91
2022/02/20 11:50:20;;;;;;;33.97;5.85;;;11.50;86.00;;;;;;5016835;28;20606;-92
2022/02/20 11:52:55;;;;;;;25.27;6.05;;;11.40;86.10;;;;;;5021687;28;20267;-93
2022/02/20 11:55:30;;;;;;;37.35;6.72;;;11.40;86.00;;;;;;5035403;28;20201;-93
2022/02/20 11:58:13;;;;;;;33.28;5.85;;;11.50;85.90;;;;;;5020230;28;20667;-95
2022/02/20 12:01:12;;;;;;;26.60;5.55;;;11.60;85.90;;;;;;5032572;28;20253;-93
2022/02/20 12:03:44;;;;;;;32.67;6.10;;;11.70;85.80;;;;;;5043799;28;20209;-94
2022/02/20 12:06:22;;;;;;;29.45;6.85;;;11.70;85.80;;;;;;5025984;28;20200;-93
2022/02/20 12:09:21;;;;;;;25.42;5.95;;;11.70;85.70;;;;;;5037828;28;20633;-94
2022/02/20 12:12:34;;;;;;;25.00;5.97;;;11.80;85.40;;;;;;5014423;28;20181;-94
2022/02/20 12:15:48;;;;;;;24.08;6.20;;;11.80;85.20;;;;;;4995467;28;20226;-93
2022/02/20 12:18:15;;;;;;;21.17;5.43;;;11.70;85.20;;;;;;5008015;28;20190;-93
2022/02/20 12:20:47;;;;;;;37.45;7.57;;;11.70;85.70;;;;;;5011274;28;20179;-93
2022/02/20 12:23:32;;;;;;;26.52;6.95;;;11.70;85.90;;;;;;5012386;28;20846;-94
2022/02/20 12:26:03;;;;;;;32.38;5.90;;;11.70;86.10;;;;;;4987453;28;20210;-93
2022/02/20 12:28:36;;;;;;;47.80;7.53;;;11.70;86.10;;;;;;5008685;28;20167;-95
2022/02/20 12:31:08;;;;;;;38.15;6.40;;;11.70;86.10;;;;;;5007127;28;20601;-94
2022/02/20 12:56:58;;;;;;;20.73;6.28;;;12.00;84.60;;;;;;5038281;28;20210;-92
2022/02/20 12:59:24;;;;;;;33.97;6.32;;;12.00;84.60;;;;;;5019853;28;20182;-92
2022/02/20 13:01:59;;;;;;;28.73;7.10;;;12.00;84.70;;;;;;5021606;28;20188;-93
2022/02/20 13:04:29;;;;;;;27.50;6.88;;;11.90;85.00;;;;;;5018218;28;20209;-92
2022/02/20 13:07:01;;;;;;;32.90;6.72;;;11.80;85.30;;;;;;5019868;28;20202;-91
2022/02/20 13:09:48;;;;;;;35.55;6.10;;;11.80;85.40;;;;;;5019067;28;20193;-90
2022/02/20 13:12:19;;;;;;;22.00;6.10;;;11.70;85.80;;;;;;5019149;28;20174;-91
2022/02/20 13:15:06;;;;;;;23.45;6.28;;;11.60;86.10;;;;;;5033625;28;20263;-91
2022/02/20 13:18:09;;;;;;;36.90;6.78;;;11.60;86.50;;;;;;5038775;28;20158;-88
2022/02/20 13:20:38;;;;;;;30.00;5.80;;;11.70;86.70;;;;;;5032000;28;20179;-88
2022/02/20 13:23:16;;;;;;;31.80;6.35;;;11.70;86.80;;;;;;5038191;28;20268;-89